sensor_id;sensor_type;location;lat;lon;timestamp;pressure;altitude;pressure_sealevel;temperature;humidity
4858;BME280;58975;51.978;8.472;2023-03-03T00:01:18;101113.50;;;0.46;100.00
4858;BME280;58975;51.978;8.472;2023-03-03T00:06:14;101117.91;;;0.44;100.00
4858;BME280;58975;51.978;8.472;2023-03-03T00:11:11;101105.56;;;0.50;100.00
4858;BME280;58975;51.978;8.472;2023-03-03T00:16:23;101100.56;;;0.40;100.00
4858;BME280;58975;51.978;8.472;2023-03-03T00:21:39;101099.59;;;0.44;100.00
4858;BME280;58975;51.978;8.472;2023-03-03T00:26:38;101100.44;;;0.45;100.00
4858;BME280;58975;51.978;8.472;2023-03-03T00:31:35;101105.91;;;0.37;100.00
4858;BME280;58975;51.978;8.472;2023-03-03T00:36:38;101092.88;;;0.34;100.00
4858;BME280;58975;51.978;8.472;2023-03-03T00:41:35;101096.50;;;0.30;100.00
4858;BME280;58975;51.978;8.472;2023-03-03T00:46:35;101105.25;;;0.29;100.00
4858;BME280;58975;51.978;8.472;2023-03-03T00:51:32;101089.22;;;0.40;100.00
4858;BME280;58975;51.978;8.472;2023-03-03T00:56:31;101085.94;;;0.32;100.00
4858;BME280;58975;51.978;8.472;2023-03-03T01:01:27;101083.28;;;0.35;100.00
4858;BME280;58975;51.978;8.472;2023-03-03T01:06:23;101093.75;;;0.35;100.00
4858;BME280;58975;51.978;8.472;2023-03-03T01:11:22;101091.34;;;0.27;100.00
4858;BME280;58975;51.978;8.472;2023-03-03T01:16:19;101088.53;;;0.33;100.00
4858;BME280;58975;51.978;8.472;2023-03-03T01:21:16;101092.03;;;0.34;100.00
4858;BME280;58975;51.978;8.472;2023-03-03T01:26:13;101093.69;;;0.36;100.00
4858;BME280;58975;51.978;8.472;2023-03-03T01:31:10;101089.56;;;0.28;100.00
4858;BME280;58975;51.978;8.472;2023-03-03T01:36:08;101084.19;;;0.32;100.00
4858;BME280;58975;51.978;8.472;2023-03-03T01:41:04;101082.50;;;0.31;100.00
4858;BME280;58975;51.978;8.472;2023-03-03T01:51:30;101080.06;;;0.24;100.00
4858;BME280;58975;51.978;8.472;2023-03-03T01:56:27;101092.25;;;0.26;100.00
4858;BME280;58975;51.978;8.472;2023-03-03T02:01:26;101093.91;;;0.29;100.00
4858;BME280;58975;51.978;8.472;2023-03-03T02:06:33;101086.16;;;0.24;100.00
4858;BME280;58975;51.978;8.472;2023-03-03T02:11:32;101087.75;;;0.31;100.00
4858;BME280;58975;51.978;8.472;2023-03-03T02:16:29;101089.66;;;0.25;100.00
4858;BME280;58975;51.978;8.472;2023-03-03T02:21:26;101089.94;;;0.14;100.00
4858;BME280;58975;51.978;8.472;2023-03-03T02:26:25;101086.47;;;0.14;100.00
4858;BME280;58975;51.978;8.472;2023-03-03T02:31:24;101087.34;;;0.14;100.00
4858;BME280;58975;51.978;8.472;2023-03-03T02:36:25;101093.53;;;0.12;100.00
4858;BME280;58975;51.978;8.472;2023-03-03T02:46:41;101090.09;;;0.08;100.00
4858;BME280;58975;51.978;8.472;2023-03-03T02:51:39;101090.09;;;0.08;100.00
4858;BME280;58975;51.978;8.472;2023-03-03T02:56:35;101096.09;;;0.13;100.00
4858;BME280;58975;51.978;8.472;2023-03-03T03:01:32;101102.28;;;0.11;100.00
4858;BME280;58975;51.978;8.472;2023-03-03T03:06:32;101098.00;;;0.07;100.00
4858;BME280;58975;51.978;8.472;2023-03-03T03:11:28;101092.66;;;0.11;100.00
4858;BME280;58975;51.978;8.472;2023-03-03T03:16:25;101090.09;;;0.08;100.00
4858;BME280;58975;51.978;8.472;2023-03-03T03:21:21;101087.53;;;0.07;100.00
4858;BME280;58975;51.978;8.472;2023-03-03T03:26:18;101102.59;;;-0.02;100.00
4858;BME280;58975;51.978;8.472;2023-03-03T03:31:17;101093.09;;;-0.06;100.00
4858;BME280;58975;51.978;8.472;2023-03-03T03:36:14;101108.13;;;-0.12;100.00
4858;BME280;58975;51.978;8.472;2023-03-03T03:41:11;101092.13;;;-0.03;100.00
4858;BME280;58975;51.978;8.472;2023-03-03T03:46:08;101092.09;;;0.00;100.00
4858;BME280;58975;51.978;8.472;2023-03-03T03:51:04;101105.81;;;0.08;100.00
4858;BME280;58975;51.978;8.472;2023-03-03T03:56:01;101108.13;;;-0.12;100.00
4858;BME280;58975;51.978;8.472;2023-03-03T04:01:05;101100.19;;;-0.11;100.00
4858;BME280;58975;51.978;8.472;2023-03-03T04:06:02;101088.94;;;-0.14;100.00
4858;BME280;58975;51.978;8.472;2023-03-03T04:10:58;101107.28;;;-0.14;100.00
4858;BME280;58975;51.978;8.472;2023-03-03T04:15:55;101104.97;;;-0.26;100.00
4858;BME280;58975;51.978;8.472;2023-03-03T04:20:52;101117.28;;;-0.31;100.00
4858;BME280;58975;51.978;8.472;2023-03-03T04:25:49;101106.81;;;-0.31;100.00
4858;BME280;58975;51.978;8.472;2023-03-03T04:30:46;101110.50;;;-0.38;100.00
4858;BME280;58975;51.978;8.472;2023-03-03T04:35:42;101100.75;;;-0.32;100.00
4858;BME280;58975;51.978;8.472;2023-03-03T04:40:40;101099.81;;;-0.29;100.00
4858;BME280;58975;51.978;8.472;2023-03-03T04:45:36;101106.00;;;-0.32;100.00
4858;BME280;58975;51.978;8.472;2023-03-03T04:50:33;101104.25;;;-0.33;100.00
4858;BME280;58975;51.978;8.472;2023-03-03T04:55:30;101112.94;;;-0.31;100.00
4858;BME280;58975;51.978;8.472;2023-03-03T05:00:26;101108.47;;;-0.27;100.00
4858;BME280;58975;51.978;8.472;2023-03-03T05:05:22;101110.13;;;-0.23;100.00
4858;BME280;58975;51.978;8.472;2023-03-03T05:10:19;101113.69;;;-0.27;100.00
4858;BME280;58975;51.978;8.472;2023-03-03T05:15:16;101127.84;;;-0.34;100.00
4858;BME280;58975;51.978;8.472;2023-03-03T05:20:13;101129.06;;;-0.47;100.00
4858;BME280;58975;51.978;8.472;2023-03-03T05:25:09;101129.78;;;-0.42;100.00
4858;BME280;58975;51.978;8.472;2023-03-03T05:30:08;101129.06;;;-0.47;100.00
4858;BME280;58975;51.978;8.472;2023-03-03T05:35:05;101133.38;;;-0.47;100.00
4858;BME280;58975;51.978;8.472;2023-03-03T05:40:01;101135.97;;;-0.45;100.00
4858;BME280;58975;51.978;8.472;2023-03-03T05:44:59;101137.91;;;-0.53;100.00
4858;BME280;58975;51.978;8.472;2023-03-03T05:49:55;101149.34;;;-0.59;100.00
4858;BME280;58975;51.978;8.472;2023-03-03T05:54:52;101145.25;;;-0.70;100.00
4858;BME280;58975;51.978;8.472;2023-03-03T05:59:49;101153.16;;;-0.72;100.00
4858;BME280;58975;51.978;8.472;2023-03-03T06:04:45;101148.00;;;-0.75;100.00
4858;BME280;58975;51.978;8.472;2023-03-03T06:09:41;101152.41;;;-0.78;100.00
4858;BME280;58975;51.978;8.472;2023-03-03T06:14:38;101154.31;;;-0.85;100.00
4858;BME280;58975;51.978;8.472;2023-03-03T06:19:34;101163.97;;;-0.87;100.00
4858;BME280;58975;51.978;8.472;2023-03-03T06:24:31;101164.00;;;-0.90;100.00
4858;BME280;58975;51.978;8.472;2023-03-03T06:29:27;101165.50;;;-0.78;100.00
4858;BME280;58975;51.978;8.472;2023-03-03T06:34:24;101170.78;;;-0.80;100.00
4858;BME280;58975;51.978;8.472;2023-03-03T06:39:20;101182.88;;;-0.76;100.00
4858;BME280;58975;51.978;8.472;2023-03-03T06:44:16;101215.53;;;-0.54;100.00
4858;BME280;58975;51.978;8.472;2023-03-03T06:49:13;101213.66;;;-0.49;100.00
4858;BME280;58975;51.978;8.472;2023-03-03T06:54:20;101220.53;;;-0.83;100.00
4858;BME280;58975;51.978;8.472;2023-03-03T06:59:22;101220.63;;;-0.87;100.00
4858;BME280;58975;51.978;8.472;2023-03-03T07:04:30;101217.91;;;-0.83;100.00
4858;BME280;58975;51.978;8.472;2023-03-03T07:09:28;101223.69;;;-0.67;100.00
4858;BME280;58975;51.978;8.472;2023-03-03T07:14:25;101224.25;;;-0.55;100.00
4858;BME280;58975;51.978;8.472;2023-03-03T07:19:32;101235.63;;;-0.56;100.00
4858;BME280;58975;51.978;8.472;2023-03-03T07:24:29;101238.78;;;-0.40;100.00
4858;BME280;58975;51.978;8.472;2023-03-03T07:29:28;101241.69;;;-0.54;100.00
4858;BME280;58975;51.978;8.472;2023-03-03T07:34:57;101237.31;;;-0.53;100.00
4858;BME280;58975;51.978;8.472;2023-03-03T07:39:54;101253.47;;;-0.34;100.00
4858;BME280;58975;51.978;8.472;2023-03-03T07:44:53;101242.34;;;-0.07;100.00
4858;BME280;58975;51.978;8.472;2023-03-03T07:49:51;101251.06;;;-0.07;100.00
4858;BME280;58975;51.978;8.472;2023-03-03T07:54:48;101253.75;;;-0.08;100.00
4858;BME280;58975;51.978;8.472;2023-03-03T07:59:50;101253.28;;;0.12;100.00
4858;BME280;58975;51.978;8.472;2023-03-03T08:04:47;101248.75;;;0.18;100.00
4858;BME280;58975;51.978;8.472;2023-03-03T08:14:46;101244.94;;;0.31;100.00
4858;BME280;58975;51.978;8.472;2023-03-03T08:19:43;101241.91;;;0.46;100.00
4858;BME280;58975;51.978;8.472;2023-03-03T08:24:39;101253.13;;;0.52;100.00
4858;BME280;58975;51.978;8.472;2023-03-03T08:29:36;101247.97;;;0.48;100.00
4858;BME280;58975;51.978;8.472;2023-03-03T08:34:32;101251.09;;;0.29;100.00
4858;BME280;58975;51.978;8.472;2023-03-03T08:39:29;101255.59;;;0.58;100.00
4858;BME280;58975;51.978;8.472;2023-03-03T08:44:25;101246.75;;;0.62;100.00
4858;BME280;58975;51.978;8.472;2023-03-03T08:49:21;101249.78;;;0.79;100.00
4858;BME280;58975;51.978;8.472;2023-03-03T08:54:18;101242.66;;;0.84;100.00
4858;BME280;58975;51.978;8.472;2023-03-03T08:59:14;101238.13;;;1.20;100.00
4858;BME280;58975;51.978;8.472;2023-03-03T09:04:10;101247.06;;;1.43;100.00
4858;BME280;58975;51.978;8.472;2023-03-03T09:09:07;101248.22;;;1.63;100.00
4858;BME280;58975;51.978;8.472;2023-03-03T09:14:12;101260.34;;;1.67;100.00
4858;BME280;58975;51.978;8.472;2023-03-03T09:19:20;101252.16;;;1.77;100.00
4858;BME280;58975;51.978;8.472;2023-03-03T09:24:24;101250.72;;;1.95;100.00
4858;BME280;58975;51.978;8.472;2023-03-03T09:29:27;101259.41;;;1.97;100.00
4858;BME280;58975;51.978;8.472;2023-03-03T09:34:36;101267.25;;;1.99;100.00
4858;BME280;58975;51.978;8.472;2023-03-03T09:39:33;101274.09;;;2.30;100.00
4858;BME280;58975;51.978;8.472;2023-03-03T09:45:01;101271.69;;;2.51;100.00
4858;BME280;58975;51.978;8.472;2023-03-03T09:50:17;101266.06;;;2.86;100.00
4858;BME280;58975;51.978;8.472;2023-03-03T09:55:34;101264.44;;;3.07;100.00
4858;BME280;58975;51.978;8.472;2023-03-03T10:00:58;101283.84;;;3.27;100.00
4858;BME280;58975;51.978;8.472;2023-03-03T10:11:22;101280.97;;;3.33;100.00
4858;BME280;58975;51.978;8.472;2023-03-03T10:21:44;101288.34;;;1.68;100.00
4858;BME280;58975;51.978;8.472;2023-03-03T10:48:28;101304.09;;;3.25;100.00
4858;BME280;58975;51.978;8.472;2023-03-03T10:53:36;101293.22;;;3.81;100.00
4858;BME280;58975;51.978;8.472;2023-03-03T11:03:48;101287.91;;;4.90;100.00
4858;BME280;58975;51.978;8.472;2023-03-03T11:08:55;101297.81;;;4.21;100.00
4858;BME280;58975;51.978;8.472;2023-03-03T11:14:09;101293.03;;;3.64;100.00
4858;BME280;58975;51.978;8.472;2023-03-03T11:25:00;101280.66;;;2.70;100.00
4858;BME280;58975;51.978;8.472;2023-03-03T11:30:15;101284.91;;;3.47;100.00
4858;BME280;58975;51.978;8.472;2023-03-03T11:36:16;101285.56;;;3.05;100.00
4858;BME280;58975;51.978;8.472;2023-03-03T11:46:21;101270.66;;;2.55;100.00
4858;BME280;58975;51.978;8.472;2023-03-03T11:51:33;101273.38;;;2.78;100.00
4858;BME280;58975;51.978;8.472;2023-03-03T11:56:42;101270.03;;;2.73;100.00
4858;BME280;58975;51.978;8.472;2023-03-03T12:02:02;101265.44;;;3.03;100.00
4858;BME280;58975;51.978;8.472;2023-03-03T12:07:30;101253.84;;;3.08;100.00
4858;BME280;58975;51.978;8.472;2023-03-03T12:12:34;101245.19;;;3.96;100.00
4858;BME280;58975;51.978;8.472;2023-03-03T12:33:36;101228.84;;;2.97;100.00
4858;BME280;58975;51.978;8.472;2023-03-03T12:44:30;101211.75;;;3.08;100.00
4858;BME280;58975;51.978;8.472;2023-03-03T12:49:45;101214.41;;;3.53;100.00
4858;BME280;58975;51.978;8.472;2023-03-03T12:55:07;101208.84;;;4.04;100.00
4858;BME280;58975;51.978;8.472;2023-03-03T13:10:34;101191.47;;;4.20;100.00
4858;BME280;58975;51.978;8.472;2023-03-03T13:15:38;101198.13;;;4.09;100.00
4858;BME280;58975;51.978;8.472;2023-03-03T13:20:56;101194.63;;;3.65;100.00
4858;BME280;58975;51.978;8.472;2023-03-03T13:26:01;101192.81;;;3.67;100.00
4858;BME280;58975;51.978;8.472;2023-03-03T13:31:07;101175.84;;;3.74;100.00
4858;BME280;58975;51.978;8.472;2023-03-03T13:36:12;101185.16;;;3.83;100.00
4858;BME280;58975;51.978;8.472;2023-03-03T13:41:19;101183.53;;;3.57;100.00
4858;BME280;58975;51.978;8.472;2023-03-03T13:46:40;101177.94;;;3.88;100.00
4858;BME280;58975;51.978;8.472;2023-03-03T13:51:59;101171.66;;;3.90;100.00
4858;BME280;58975;51.978;8.472;2023-03-03T13:57:24;101170.03;;;3.88;100.00
4858;BME280;58975;51.978;8.472;2023-03-03T14:07:37;101163.94;;;3.86;100.00
4858;BME280;58975;51.978;8.472;2023-03-03T14:12:45;101165.66;;;3.65;100.00
4858;BME280;58975;51.978;8.472;2023-03-03T14:23:23;101159.56;;;3.64;100.00
4858;BME280;58975;51.978;8.472;2023-03-03T14:28:26;101156.69;;;3.49;100.00
4858;BME280;58975;51.978;8.472;2023-03-03T14:33:29;101150.13;;;3.59;100.00
4858;BME280;58975;51.978;8.472;2023-03-03T14:43:36;101151.31;;;3.28;100.00
4858;BME280;58975;51.978;8.472;2023-03-03T14:48:49;101151.22;;;3.08;100.00
4858;BME280;58975;51.978;8.472;2023-03-03T14:53:47;101141.03;;;2.99;100.00
4858;BME280;58975;51.978;8.472;2023-03-03T14:58:45;101133.22;;;2.98;100.00
4858;BME280;58975;51.978;8.472;2023-03-03T15:04:01;101134.06;;;3.21;100.00
4858;BME280;58975;51.978;8.472;2023-03-03T15:09:32;101133.59;;;3.10;100.00
4858;BME280;58975;51.978;8.472;2023-03-03T15:14:41;101135.75;;;3.22;100.00
4858;BME280;58975;51.978;8.472;2023-03-03T15:25:32;101122.44;;;3.49;100.00
4858;BME280;58975;51.978;8.472;2023-03-03T15:30:50;101112.69;;;3.51;100.00
4858;BME280;58975;51.978;8.472;2023-03-03T15:35:58;101113.88;;;3.44;100.00
4858;BME280;58975;51.978;8.472;2023-03-03T15:52:01;101103.34;;;3.44;100.00
4858;BME280;58975;51.978;8.472;2023-03-03T15:57:17;101106.81;;;3.22;100.00
4858;BME280;58975;51.978;8.472;2023-03-03T16:02:19;101096.16;;;3.25;100.00
4858;BME280;58975;51.978;8.472;2023-03-03T16:07:28;101096.94;;;3.06;100.00
4858;BME280;58975;51.978;8.472;2023-03-03T16:23:35;101105.69;;;2.83;100.00
4858;BME280;58975;51.978;8.472;2023-03-03T16:29:02;101111.91;;;2.82;100.00
4858;BME280;58975;51.978;8.472;2023-03-03T16:34:10;101106.34;;;2.90;100.00
4858;BME280;58975;51.978;8.472;2023-03-03T16:39:17;101109.13;;;2.85;100.00
4858;BME280;58975;51.978;8.472;2023-03-03T16:44:33;101109.47;;;2.76;100.00
4858;BME280;58975;51.978;8.472;2023-03-03T16:49:43;101109.06;;;2.63;100.00
4858;BME280;58975;51.978;8.472;2023-03-03T16:55:09;101113.22;;;2.46;100.00
4858;BME280;58975;51.978;8.472;2023-03-03T17:00:12;101126.81;;;2.33;100.00
4858;BME280;58975;51.978;8.472;2023-03-03T17:05:35;101114.13;;;2.20;100.00
4858;BME280;58975;51.978;8.472;2023-03-03T17:10:49;101121.53;;;2.09;100.00
4858;BME280;58975;51.978;8.472;2023-03-03T17:15:52;101116.28;;;2.09;100.00
4858;BME280;58975;51.978;8.472;2023-03-03T17:20:59;101118.63;;;1.92;100.00
4858;BME280;58975;51.978;8.472;2023-03-03T17:26:12;101123.31;;;1.82;100.00
4858;BME280;58975;51.978;8.472;2023-03-03T17:31:30;101127.84;;;1.77;100.00
4858;BME280;58975;51.978;8.472;2023-03-03T17:47:13;101131.09;;;1.59;100.00
4858;BME280;58975;51.978;8.472;2023-03-03T17:52:41;101128.56;;;1.56;100.00
4858;BME280;58975;51.978;8.472;2023-03-03T18:08:27;101140.47;;;1.39;100.00
4858;BME280;58975;51.978;8.472;2023-03-03T18:13:43;101141.59;;;1.59;100.00
4858;BME280;58975;51.978;8.472;2023-03-03T18:29:25;101153.06;;;1.56;100.00
4858;BME280;58975;51.978;8.472;2023-03-03T18:34:39;101155.53;;;1.61;100.00
4858;BME280;58975;51.978;8.472;2023-03-03T18:39:41;101168.06;;;1.53;100.00
4858;BME280;58975;51.978;8.472;2023-03-03T18:44:40;101167.97;;;1.54;100.00
4858;BME280;58975;51.978;8.472;2023-03-03T18:54:42;101164.84;;;1.97;100.00
4858;BME280;58975;51.978;8.472;2023-03-03T18:59:47;101166.66;;;1.95;100.00
4858;BME280;58975;51.978;8.472;2023-03-03T19:04:49;101169.81;;;1.80;100.00
4858;BME280;58975;51.978;8.472;2023-03-03T19:09:58;101168.22;;;1.74;100.00
4858;BME280;58975;51.978;8.472;2023-03-03T19:14:56;101167.88;;;1.85;100.00
4858;BME280;58975;51.978;8.472;2023-03-03T19:20:09;101169.91;;;2.03;100.00
4858;BME280;58975;51.978;8.472;2023-03-03T19:30:20;101165.06;;;2.16;100.00
4858;BME280;58975;51.978;8.472;2023-03-03T19:35:48;101162.97;;;2.27;100.00
4858;BME280;58975;51.978;8.472;2023-03-03T19:46:55;101176.78;;;2.07;100.00
4858;BME280;58975;51.978;8.472;2023-03-03T19:52:03;101165.19;;;2.13;100.00
4858;BME280;58975;51.978;8.472;2023-03-03T19:57:07;101174.63;;;2.18;100.00
4858;BME280;58975;51.978;8.472;2023-03-03T20:07:25;101163.38;;;2.39;100.00
4858;BME280;58975;51.978;8.472;2023-03-03T20:17:53;101166.28;;;2.32;100.00
4858;BME280;58975;51.978;8.472;2023-03-03T20:23:03;101163.16;;;2.21;100.00
4858;BME280;58975;51.978;8.472;2023-03-03T20:33:48;101166.13;;;2.36;100.00
4858;BME280;58975;51.978;8.472;2023-03-03T20:39:07;101161.09;;;2.30;100.00
4858;BME280;58975;51.978;8.472;2023-03-03T20:49:26;101162.59;;;2.37;100.00
4858;BME280;58975;51.978;8.472;2023-03-03T20:54:52;101146.22;;;2.29;100.00
4858;BME280;58975;51.978;8.472;2023-03-03T21:05:18;101150.34;;;2.36;100.00
4858;BME280;58975;51.978;8.472;2023-03-03T21:10:19;101149.56;;;2.34;100.00
4858;BME280;58975;51.978;8.472;2023-03-03T21:15:23;101157.47;;;2.33;100.00
4858;BME280;58975;51.978;8.472;2023-03-03T21:20:39;101159.34;;;2.29;100.00
4858;BME280;58975;51.978;8.472;2023-03-03T21:31:10;101156.84;;;2.26;100.00
4858;BME280;58975;51.978;8.472;2023-03-03T21:36:08;101158.75;;;2.21;100.00
4858;BME280;58975;51.978;8.472;2023-03-03T21:41:06;101153.41;;;2.24;100.00
4858;BME280;58975;51.978;8.472;2023-03-03T21:46:03;101157.63;;;2.28;100.00
4858;BME280;58975;51.978;8.472;2023-03-03T21:51:00;101154.06;;;2.31;100.00
4858;BME280;58975;51.978;8.472;2023-03-03T21:55:57;101150.16;;;2.16;100.00
4858;BME280;58975;51.978;8.472;2023-03-03T22:00:53;101155.84;;;2.04;100.00
4858;BME280;58975;51.978;8.472;2023-03-03T22:05:50;101151.09;;;2.15;100.00
4858;BME280;58975;51.978;8.472;2023-03-03T22:10:46;101142.25;;;2.18;100.00
4858;BME280;58975;51.978;8.472;2023-03-03T22:15:46;101132.25;;;2.27;100.00
4858;BME280;58975;51.978;8.472;2023-03-03T22:20:44;101132.25;;;2.27;100.00
4858;BME280;58975;51.978;8.472;2023-03-03T22:25:41;101129.47;;;2.32;100.00
4858;BME280;58975;51.978;8.472;2023-03-03T22:30:37;101131.59;;;2.22;100.00
4858;BME280;58975;51.978;8.472;2023-03-03T22:35:34;101136.13;;;2.17;100.00
4858;BME280;58975;51.978;8.472;2023-03-03T22:40:30;101135.94;;;2.23;100.00
4858;BME280;58975;51.978;8.472;2023-03-03T22:45:28;101132.38;;;2.24;100.00
4858;BME280;58975;51.978;8.472;2023-03-03T22:50:24;101122.78;;;2.23;100.00
4858;BME280;58975;51.978;8.472;2023-03-03T22:55:21;101120.38;;;2.17;100.00
4858;BME280;58975;51.978;8.472;2023-03-03T23:00:18;101129.16;;;2.16;100.00
4858;BME280;58975;51.978;8.472;2023-03-03T23:05:16;101116.59;;;2.24;100.00
4858;BME280;58975;51.978;8.472;2023-03-03T23:10:12;101116.75;;;2.20;100.00
4858;BME280;58975;51.978;8.472;2023-03-03T23:15:09;101116.84;;;2.18;100.00
4858;BME280;58975;51.978;8.472;2023-03-03T23:20:11;101116.00;;;2.16;100.00
4858;BME280;58975;51.978;8.472;2023-03-03T23:25:10;101110.81;;;2.15;100.00
4858;BME280;58975;51.978;8.472;2023-03-03T23:30:08;101109.97;;;2.14;100.00
4858;BME280;58975;51.978;8.472;2023-03-03T23:35:05;101105.16;;;2.01;100.00
4858;BME280;58975;51.978;8.472;2023-03-03T23:40:01;101106.50;;;2.12;100.00
4858;BME280;58975;51.978;8.472;2023-03-03T23:44:58;101110.41;;;2.27;100.00
4858;BME280;58975;51.978;8.472;2023-03-03T23:49:54;101107.38;;;2.13;100.00
4858;BME280;58975;51.978;8.472;2023-03-03T23:54:51;101099.56;;;2.11;100.00
4858;BME280;58975;51.978;8.472;2023-03-03T23:59:48;101106.84;;;2.28;100.00
